• Join FlightAware (Why Join?)
  • Login
  • US Flag 
04:09AM EDT


 

Airport Tracker/Info


-or-


 

Live Flight TrackerFlight Track Log ✈ ASQ4329 ✈ 25-Apr-2012 ✈ KEWR - KSDF

Flight Track Log - Related Links

Times and Time Zones

All times are in EDT time to prevent confusion due to time zone crossing. See the ASQ4329 flight status page for this flight to view local times or setup timezone preferences in your user account.

Time Position Orientation Groundspeed Altitude Reporting Facility
EDT Latitude Longitude Course Direction KTS MPH feet Rate Location/Type
04:32PM 40.6436 -74.1817 250° West 185 213 2,000  Level New York Center
04:33PM 40.6250 -74.2489 272° West 204 235 4,300 2,100 Climbing New York Center
04:34PM 40.6269 -74.3256 274° West 240 276 6,300 2,040 Climbing New York Center
04:35PM 40.6322 -74.4217 280° West 248 285 8,400 1,740 Climbing New York Center
04:37PM 40.6500 -74.5500 274° West 282 325 10,400 1,260 Climbing New York TRACON
04:38PM 40.6581 -74.7211 276° West 313 360 12,300 1,500 Climbing New York Center
04:39PM 40.6683 -74.8450 275° West 313 360 14,500 1,860 Climbing New York Center
04:40PM 40.6750 -74.9575 274° West 313 360 16,000 1,440 Climbing New York Center
04:41PM 40.6811 -75.0728 244° Southwest 313 360 17,400 1,440 Climbing New York Center
04:42PM 40.6397 -75.1822 238° Southwest 313 360 19,000 1,440 Climbing New York Center
04:43PM 40.5897 -75.2883 239° Southwest 320 368 20,400 1,380 Climbing New York Center
04:44PM 40.5397 -75.3972 238° Southwest 343 395 21,800 1,380 Climbing New York Center
04:45PM 40.4897 -75.5031 237° Southwest 349 402 23,200 1,380 Climbing New York Center
04:46PM 40.4328 -75.6192 239° Southwest 369 425 24,700 1,380 Climbing New York Center
04:47PM 40.3825 -75.7272 238° Southwest 364 419 26,000 1,320 Climbing New York Center
04:48PM 40.3319 -75.8353 238° Southwest 359 413 27,300 840 Climbing New York Center
04:49PM 40.2794 -75.9458 239° Southwest 359 413 27,800 720 Climbing New York Center
04:50PM 40.2261 -76.0614 239° Southwest 364 419 28,800 900 Climbing New York Center
04:51PM 40.1731 -76.1769 242° Southwest 376 433 29,700 840 Climbing New York Center
04:52PM 40.1283 -76.2847 239° Southwest 371 427 30,500 960 Climbing New York Center
04:53PM 40.0750 -76.4000 239° Southwest 371 427 31,600 1,020 Climbing New York Center
04:54PM 40.0214 -76.5175 238° Southwest 371 427 32,600 900 Climbing New York Center
04:55PM 39.9656 -76.6350 238° Southwest 376 433 33,500 1,140 Climbing New York Center
04:56PM 39.9053 -76.7597 239° Southwest 376 433 34,900 1,020 Climbing New York Center
04:58PM 39.8528 -76.8725 238° Southwest 374 430 35,700 480 Climbing Washington Center
04:59PM 39.7994 -76.9850 238° Southwest 374 430 36,000 120 Climbing Washington Center
05:00PM 39.7417 -77.1053 238° Southwest 384 442 36,000  Level Washington Center
05:01PM 39.6817 -77.2308 238° Southwest 390 449 36,000  Level Washington Center
05:02PM 39.6194 -77.3614 238° Southwest 415 478 36,000  Level Washington Center
05:04PM 39.4944 -77.6247 237° Southwest 426 490 36,000  Level Washington Center
05:05PM 39.4317 -77.7519 240° Southwest 426 490 36,000  Level Washington Center
05:06PM 39.3667 -77.8975 243° Southwest 426 490 36,000  Level Washington Center
05:07PM 39.3139 -78.0300 243° Southwest 421 484 36,000  Level Washington Center
05:08PM 39.2611 -78.1622 243° Southwest 416 479 36,000  Level Washington Center
05:09PM 39.2106 -78.2892 243° Southwest 411 473 36,000  Level Washington Center
05:10PM 39.1575 -78.4208 242° Southwest 411 473 36,000  Level Washington Center
05:11PM 39.1044 -78.5472 243° Southwest 405 466 36,000  Level Washington Center
05:12PM 39.0508 -78.6814 242° Southwest 410 472 36,000  Level Washington Center
05:13PM 38.9975 -78.8100 241° Southwest 410 472 36,000  Level Washington Center
05:14PM 38.9419 -78.9411 243° Southwest 410 472 36,000  Level Washington Center
05:15PM 38.8881 -79.0747 244° Southwest 410 472 36,000  Level Washington Center
05:16PM 38.8383 -79.2031 256° West 410 472 36,000  Level Washington Center
05:17PM 38.8136 -79.3269 257° West 410 472 36,000  Level Washington Center
05:18PM 38.7886 -79.4617 261° West 395 455 36,000  Level Washington Center
05:19PM 38.7717 -79.5964 257° West 395 455 36,000  Level Washington Center
05:20PM 38.7486 -79.7256 256° West 388 447 36,000  Level Washington Center
05:21PM 38.7231 -79.8547 255° West 382 440 36,000  Level Washington Center
05:23PM 38.6631 -80.1500 258° West 370 426 36,000  Level Indianapolis Center
05:24PM 38.6400 -80.2867 256° West 376 433 36,000  Level Indianapolis Center
05:25PM 38.6144 -80.4206 257° West 383 441 36,000  Level Indianapolis Center
05:26PM 38.5908 -80.5547 255° West 388 447 36,000  Level Indianapolis Center
05:27PM 38.5683 -80.6592 253° West 388 447 36,000  Level Indianapolis Center
05:28PM 38.5342 -80.8039 252° West 388 447 36,000  Level Indianapolis Center
05:29PM 38.5017 -80.9350 253° West 393 452 36,000  Level Indianapolis Center
05:30PM 38.4692 -81.0664 251° West 398 458 36,000  Level Indianapolis Center
05:31PM 38.4322 -81.2028 253° West 398 458 36,000  Level Indianapolis Center
05:32PM 38.3994 -81.3364 252° West 403 464 36,000  Level Indianapolis Center
05:33PM 38.3644 -81.4725 251° West 409 471 36,000  Level Indianapolis Center
05:34PM 38.3292 -81.6058 253° West 409 471 36,000  Level Indianapolis Center
05:35PM 38.2981 -81.7389 252° West 409 471 36,000 -300 Level Indianapolis Center
05:36PM 38.2644 -81.8669 251° West 404 465 35,400 -840 Descending Indianapolis Center
05:37PM 38.2306 -81.9944 253° West 399 459 34,400 -1,020 Descending Indianapolis Center
05:38PM 38.1989 -82.1247 250° West 388 447 33,400 -1,080 Descending Indianapolis Center
05:39PM 38.1589 -82.2681 252° West 388 447 32,300 -720 Descending Indianapolis Center
05:40PM 38.1247 -82.4006 252° West 393 452 32,000 -180 Descending Indianapolis Center
05:41PM 38.0906 -82.5331 251° West 393 452 32,000  Level Indianapolis Center
05:42PM 38.0542 -82.6656 252° West 400 460 32,000  Level Indianapolis Center
05:43PM 38.0197 -82.8006 251° West 405 466 32,000  Level Indianapolis Center
05:44PM 37.9828 -82.9353 250° West 410 472 32,000  Level Indianapolis Center
05:45PM 37.9439 -83.0725 250° West 410 472 32,000  Level Indianapolis Center
05:46PM 37.9067 -83.2042 252° West 410 472 32,000  Level Indianapolis Center
05:47PM 37.8717 -83.3414 251° West 410 472 32,000 -540 Level Indianapolis Center
05:48PM 37.8342 -83.4781 250° West 410 472 31,000 -1,080 Descending Indianapolis Center
05:49PM 37.7947 -83.6147 251° West 410 472 29,900 -1,080 Descending Indianapolis Center
05:50PM 37.7569 -83.7514 251° West 410 472 28,900 -1,080 Descending Indianapolis Center
05:51PM 37.7192 -83.8906 250° West 410 472 27,800 -1,080 Descending Indianapolis Center
05:52PM 37.6789 -84.0267 251° West 410 472 26,800 -1,080 Descending Indianapolis Center
05:53PM 37.6408 -84.1628 251° West 410 472 25,700 -1,200 Descending Indianapolis Center
05:54PM 37.6025 -84.3017 250° West 415 478 24,400 -1,500 Descending Indianapolis Center
05:55PM 37.5642 -84.4322 251° West 415 478 22,700 -2,040 Descending Indianapolis Center
05:56PM 37.5275 -84.5628 251° West 402 463 20,400 -2,940 Descending Indianapolis Center
05:57PM 37.4953 -84.6825 251° West 383 441 16,900 -3,300 Descending Indianapolis Center
05:58PM 37.4628 -84.7997 255° West 371 427 13,800 -2,700 Descending Indianapolis Center
05:59PM 37.4406 -84.9067 321° Northwest 340 391 11,500 -1,440 Descending Indianapolis Center
06:00PM 37.5067 -84.9733 North 274 315 11,000 -300 Descending Indianapolis Center
06:01PM 37.6028 -84.9594 342° North 345 397 10,900  Descending Indianapolis Center
06:02PM 37.6900 -84.9953 310° West 335 386 11,000 -360 Climbing Indianapolis Center
06:03PM 37.7472 -85.0806 311° West 317 365 10,200 -540 Descending Indianapolis Center
06:04PM 37.8006 -85.1578 313° West 310 357 10,000 -420 Descending Indianapolis Center
06:05PM 37.8517 -85.2272 314° West 293 337 9,400 -1,140 Descending Indianapolis Center
06:05PM 37.8822 -85.2669 312° West 242 278 8,100 -1,740 Descending FAA TRACON SMA TRACON (SMA)
06:06PM 37.9142 -85.3114 312° West 248 285 7,000 -1,440 Descending FAA TRACON SMA TRACON (SMA)
06:07PM 37.9467 -85.3575 312° West 256 295 6,200 -840 Descending FAA TRACON SMA TRACON (SMA)
06:07PM 37.9806 -85.4047 312° West 262 302 5,900 -240 Descending FAA TRACON SMA TRACON (SMA)
06:08PM 38.0108 -85.4469 312° West 264 304 5,900  Level FAA TRACON SMA TRACON (SMA)
06:09PM 38.0447 -85.4942 311° West 261 300 5,900  Level FAA TRACON SMA TRACON (SMA)
06:09PM 38.0739 -85.5361 314° West 258 297 5,900  Level FAA TRACON SMA TRACON (SMA)
06:10PM 38.1081 -85.5814 343° North 257 296 5,900  Level FAA TRACON SMA TRACON (SMA)
06:11PM 38.1572 -85.6003 346° North 268 308 5,900 -540 Level FAA TRACON SMA TRACON (SMA)
06:11PM 38.2069 -85.6164 345° North 266 306 5,200 -1,200 Descending FAA TRACON SMA TRACON (SMA)
06:12PM 38.2506 -85.6311 339° North 262 302 4,300 -900 Descending FAA TRACON SMA TRACON (SMA)
06:13PM 38.3153 -85.6625 273° West 221 254 3,800 -720 Descending FAA TRACON SMA TRACON (SMA)
06:14PM 38.3167 -85.6919 237° Southwest 134 154 3,200 -900 Descending FAA TRACON SMA TRACON (SMA)
06:14PM 38.3042 -85.7161 211° Southwest 120 138 2,600 -600 Descending FAA TRACON SMA TRACON (SMA)
06:15PM 38.2853 -85.7308 200° South 116 133 2,400 -480 Descending FAA TRACON SMA TRACON (SMA)
06:16PM 38.2664 -85.7397 192° South 115 132 2,000 -540 Descending FAA TRACON SMA TRACON (SMA)
06:16PM 38.2442 -85.7458 192° South 119 137 1,700 -480 Descending FAA TRACON SMA TRACON (SMA)